Current Conditions
Clear
Conditions



Pressure
1017.92 (hPa) - 30.06 (inHG)
Visibility

10.0 (km) - 6.2 (miles)
   Temperature
30  °C
86°F
13  °C
Dewpoint
35  %
 Humidity
   Wind Speed
10  km/h
5  kts
6  mph
2.7  m/s
   Wind Direction
Calm
Due North
   Airport Data
LHPR
Location Győr-Pér International Airport 10 km (6.22 mi)
Metar :LHPR 031315Z AUTO VRB05KT CAVOK 30/13 Q1018 NOSIG
Sun 3rd July 15:15 pm
   Raw Metar Info
Raw METAR is the most common format in the world for the transmission of observational weather data. It is highly standardized through the International Civil Aviation Organization (ICAO), which allows it to be understood throughout most of the world.
   API Info
Data Provided by
https://www.checkwx.com/weather/LHPR
   © Info
CSS/SVG/PHP scripts were developed by weather34.com for use in the weather34 template © 2015-2022

Guide Info provided by Metar-Wikipedia